Niteroi, Brazil
Current Conditions -  °F | °C
As of 7:00 PM on Thursday 23 Oct 2014 (Local Time) from SBRJ Reporting Station
Few Clouds Few Clouds  
Wind Chill: 72°   Ceiling: Unl
Heat Index: 72°   Visibility: 5mi
Dew Point: 64°   Wind: 13mph
Humidity: 78%   Direction: 140°SE
Pressure: 30"   Gusts: NA
Location:  22.9°S, 43.13°W
Report Text: SBRJ 232100Z 14011KT 8000 FEW025 22/18 Q1016
Loading
Personal Weather Stations






























Interactive Weather Map
Tropical Storm Tracking
New forecast layout! Learn more

10-Day Weather Forecast

Advertisements
Track Severe Weather on mobile